sensor_id;sensor_type;location;lat;lon;timestamp;P1;durP1;ratioP1;P2;durP2;ratioP2
18623;SDS011;9441;51.420;7.036;2023-05-14T00:00:14;25.73;;;14.17;;
18623;SDS011;9441;51.420;7.036;2023-05-14T00:01:16;23.77;;;14.43;;
18623;SDS011;9441;51.420;7.036;2023-05-14T00:02:18;27.23;;;14.37;;
18623;SDS011;9441;51.420;7.036;2023-05-14T00:03:20;25.23;;;14.00;;
18623;SDS011;9441;51.420;7.036;2023-05-14T00:04:22;25.80;;;13.67;;
18623;SDS011;9441;51.420;7.036;2023-05-14T00:05:24;21.27;;;13.73;;
18623;SDS011;9441;51.420;7.036;2023-05-14T00:06:26;23.23;;;14.23;;
18623;SDS011;9441;51.420;7.036;2023-05-14T00:07:28;25.77;;;14.80;;
18623;SDS011;9441;51.420;7.036;2023-05-14T00:08:30;23.97;;;14.60;;
18623;SDS011;9441;51.420;7.036;2023-05-14T00:09:32;25.57;;;14.97;;
18623;SDS011;9441;51.420;7.036;2023-05-14T00:10:34;23.13;;;14.03;;
18623;SDS011;9441;51.420;7.036;2023-05-14T00:11:35;19.93;;;13.03;;
18623;SDS011;9441;51.420;7.036;2023-05-14T00:12:38;25.37;;;14.87;;
18623;SDS011;9441;51.420;7.036;2023-05-14T00:13:40;21.90;;;13.70;;
18623;SDS011;9441;51.420;7.036;2023-05-14T00:14:43;21.73;;;13.90;;
18623;SDS011;9441;51.420;7.036;2023-05-14T00:15:44;23.47;;;14.37;;
18623;SDS011;9441;51.420;7.036;2023-05-14T00:16:47;23.17;;;13.70;;
18623;SDS011;9441;51.420;7.036;2023-05-14T00:17:48;22.57;;;14.40;;
18623;SDS011;9441;51.420;7.036;2023-05-14T00:18:50;25.53;;;13.60;;
18623;SDS011;9441;51.420;7.036;2023-05-14T00:19:51;23.13;;;13.67;;
18623;SDS011;9441;51.420;7.036;2023-05-14T00:20:54;23.70;;;14.20;;
18623;SDS011;9441;51.420;7.036;2023-05-14T00:21:55;22.40;;;14.73;;
18623;SDS011;9441;51.420;7.036;2023-05-14T00:22:57;24.23;;;14.23;;
18623;SDS011;9441;51.420;7.036;2023-05-14T00:23:59;26.47;;;14.17;;
18623;SDS011;9441;51.420;7.036;2023-05-14T00:25:01;22.47;;;13.97;;
18623;SDS011;9441;51.420;7.036;2023-05-14T00:26:02;23.47;;;13.53;;
18623;SDS011;9441;51.420;7.036;2023-05-14T00:27:05;24.67;;;13.47;;
18623;SDS011;9441;51.420;7.036;2023-05-14T00:28:06;22.53;;;13.80;;
18623;SDS011;9441;51.420;7.036;2023-05-14T00:29:10;22.90;;;13.30;;
18623;SDS011;9441;51.420;7.036;2023-05-14T00:30:11;22.10;;;13.10;;
18623;SDS011;9441;51.420;7.036;2023-05-14T00:31:14;19.77;;;13.27;;
18623;SDS011;9441;51.420;7.036;2023-05-14T00:32:15;22.37;;;13.10;;
18623;SDS011;9441;51.420;7.036;2023-05-14T00:33:18;22.07;;;13.00;;
18623;SDS011;9441;51.420;7.036;2023-05-14T00:34:19;23.73;;;13.80;;
18623;SDS011;9441;51.420;7.036;2023-05-14T00:35:22;27.03;;;12.70;;
18623;SDS011;9441;51.420;7.036;2023-05-14T00:36:23;23.30;;;13.87;;
18623;SDS011;9441;51.420;7.036;2023-05-14T00:37:25;21.60;;;13.63;;
18623;SDS011;9441;51.420;7.036;2023-05-14T00:38:27;23.67;;;13.47;;
18623;SDS011;9441;51.420;7.036;2023-05-14T00:39:29;25.20;;;13.67;;
18623;SDS011;9441;51.420;7.036;2023-05-14T00:40:30;21.30;;;13.00;;
18623;SDS011;9441;51.420;7.036;2023-05-14T00:41:33;22.03;;;13.40;;
18623;SDS011;9441;51.420;7.036;2023-05-14T00:42:35;21.40;;;13.40;;
18623;SDS011;9441;51.420;7.036;2023-05-14T00:43:37;20.17;;;13.03;;
18623;SDS011;9441;51.420;7.036;2023-05-14T00:44:40;21.67;;;12.93;;
18623;SDS011;9441;51.420;7.036;2023-05-14T00:45:42;24.03;;;13.30;;
18623;SDS011;9441;51.420;7.036;2023-05-14T00:46:44;20.70;;;12.87;;
18623;SDS011;9441;51.420;7.036;2023-05-14T00:47:46;25.40;;;12.77;;
18623;SDS011;9441;51.420;7.036;2023-05-14T00:48:48;21.73;;;13.37;;
18623;SDS011;9441;51.420;7.036;2023-05-14T00:49:50;23.87;;;13.77;;
18623;SDS011;9441;51.420;7.036;2023-05-14T00:50:51;23.03;;;12.70;;
18623;SDS011;9441;51.420;7.036;2023-05-14T00:51:54;21.83;;;13.20;;
18623;SDS011;9441;51.420;7.036;2023-05-14T00:52:58;23.57;;;13.63;;
18623;SDS011;9441;51.420;7.036;2023-05-14T00:54:00;22.97;;;13.60;;
18623;SDS011;9441;51.420;7.036;2023-05-14T00:55:02;20.67;;;12.67;;
18623;SDS011;9441;51.420;7.036;2023-05-14T00:56:05;22.83;;;12.33;;
18623;SDS011;9441;51.420;7.036;2023-05-14T00:57:07;21.13;;;12.77;;
18623;SDS011;9441;51.420;7.036;2023-05-14T00:58:10;22.30;;;12.77;;
18623;SDS011;9441;51.420;7.036;2023-05-14T00:59:12;22.00;;;13.37;;
18623;SDS011;9441;51.420;7.036;2023-05-14T01:00:16;20.97;;;13.90;;
18623;SDS011;9441;51.420;7.036;2023-05-14T01:01:17;19.50;;;13.17;;
18623;SDS011;9441;51.420;7.036;2023-05-14T01:02:20;19.10;;;13.53;;
18623;SDS011;9441;51.420;7.036;2023-05-14T01:03:24;21.13;;;13.20;;
18623;SDS011;9441;51.420;7.036;2023-05-14T01:04:33;22.93;;;13.57;;
18623;SDS011;9441;51.420;7.036;2023-05-14T01:05:38;22.33;;;12.90;;
18623;SDS011;9441;51.420;7.036;2023-05-14T01:06:44;23.43;;;14.10;;
18623;SDS011;9441;51.420;7.036;2023-05-14T01:07:48;23.43;;;14.10;;
18623;SDS011;9441;51.420;7.036;2023-05-14T01:08:57;20.17;;;14.20;;
18623;SDS011;9441;51.420;7.036;2023-05-14T01:10:00;21.13;;;13.83;;
18623;SDS011;9441;51.420;7.036;2023-05-14T01:11:05;28.67;;;14.57;;
18623;SDS011;9441;51.420;7.036;2023-05-14T01:12:10;21.93;;;13.40;;
18623;SDS011;9441;51.420;7.036;2023-05-14T01:13:17;19.83;;;14.17;;
18623;SDS011;9441;51.420;7.036;2023-05-14T01:14:21;21.47;;;13.63;;
18623;SDS011;9441;51.420;7.036;2023-05-14T01:15:27;22.37;;;13.63;;
18623;SDS011;9441;51.420;7.036;2023-05-14T01:16:28;20.97;;;13.97;;
18623;SDS011;9441;51.420;7.036;2023-05-14T01:17:32;25.70;;;13.93;;
18623;SDS011;9441;51.420;7.036;2023-05-14T01:18:36;20.47;;;13.13;;
18623;SDS011;9441;51.420;7.036;2023-05-14T01:19:39;19.60;;;13.10;;
18623;SDS011;9441;51.420;7.036;2023-05-14T01:20:40;22.83;;;13.17;;
18623;SDS011;9441;51.420;7.036;2023-05-14T01:21:45;23.47;;;13.47;;
18623;SDS011;9441;51.420;7.036;2023-05-14T01:22:46;18.87;;;13.23;;
18623;SDS011;9441;51.420;7.036;2023-05-14T01:23:48;23.63;;;13.03;;
18623;SDS011;9441;51.420;7.036;2023-05-14T01:24:49;20.90;;;13.67;;
18623;SDS011;9441;51.420;7.036;2023-05-14T01:25:52;26.33;;;13.30;;
18623;SDS011;9441;51.420;7.036;2023-05-14T01:26:53;20.53;;;13.30;;
18623;SDS011;9441;51.420;7.036;2023-05-14T01:27:58;22.73;;;13.43;;
18623;SDS011;9441;51.420;7.036;2023-05-14T01:29:03;29.07;;;13.90;;
18623;SDS011;9441;51.420;7.036;2023-05-14T01:30:12;23.87;;;14.23;;
18623;SDS011;9441;51.420;7.036;2023-05-14T01:31:15;22.50;;;14.33;;
18623;SDS011;9441;51.420;7.036;2023-05-14T01:32:19;23.97;;;13.63;;
18623;SDS011;9441;51.420;7.036;2023-05-14T01:33:24;24.87;;;14.07;;
18623;SDS011;9441;51.420;7.036;2023-05-14T01:34:27;19.47;;;13.47;;
18623;SDS011;9441;51.420;7.036;2023-05-14T01:35:30;20.77;;;12.80;;
18623;SDS011;9441;51.420;7.036;2023-05-14T01:36:32;21.93;;;13.10;;
18623;SDS011;9441;51.420;7.036;2023-05-14T01:37:38;20.27;;;13.33;;
18623;SDS011;9441;51.420;7.036;2023-05-14T01:38:41;21.60;;;13.17;;
18623;SDS011;9441;51.420;7.036;2023-05-14T01:39:45;20.17;;;13.87;;
18623;SDS011;9441;51.420;7.036;2023-05-14T01:40:47;22.20;;;14.03;;
18623;SDS011;9441;51.420;7.036;2023-05-14T01:41:49;18.30;;;13.07;;
18623;SDS011;9441;51.420;7.036;2023-05-14T01:42:52;18.10;;;12.50;;
18623;SDS011;9441;51.420;7.036;2023-05-14T01:43:54;19.90;;;12.73;;
18623;SDS011;9441;51.420;7.036;2023-05-14T01:44:56;20.30;;;12.67;;
18623;SDS011;9441;51.420;7.036;2023-05-14T01:45:58;21.90;;;12.83;;
18623;SDS011;9441;51.420;7.036;2023-05-14T01:47:01;22.67;;;13.57;;
18623;SDS011;9441;51.420;7.036;2023-05-14T01:48:02;19.40;;;13.07;;
18623;SDS011;9441;51.420;7.036;2023-05-14T01:49:05;22.03;;;13.63;;
18623;SDS011;9441;51.420;7.036;2023-05-14T01:50:06;20.93;;;13.77;;
18623;SDS011;9441;51.420;7.036;2023-05-14T01:51:09;18.03;;;13.20;;
18623;SDS011;9441;51.420;7.036;2023-05-14T01:52:10;24.53;;;14.00;;
18623;SDS011;9441;51.420;7.036;2023-05-14T01:53:14;25.27;;;14.20;;
18623;SDS011;9441;51.420;7.036;2023-05-14T01:54:15;25.13;;;14.23;;
18623;SDS011;9441;51.420;7.036;2023-05-14T01:55:17;25.07;;;13.90;;
18623;SDS011;9441;51.420;7.036;2023-05-14T01:56:19;19.90;;;14.10;;
18623;SDS011;9441;51.420;7.036;2023-05-14T01:57:22;23.53;;;13.83;;
18623;SDS011;9441;51.420;7.036;2023-05-14T01:58:24;21.10;;;13.80;;
18623;SDS011;9441;51.420;7.036;2023-05-14T01:59:26;24.53;;;13.93;;
18623;SDS011;9441;51.420;7.036;2023-05-14T02:00:29;21.20;;;13.80;;
18623;SDS011;9441;51.420;7.036;2023-05-14T02:01:32;26.00;;;13.70;;
18623;SDS011;9441;51.420;7.036;2023-05-14T02:02:33;22.37;;;13.40;;
18623;SDS011;9441;51.420;7.036;2023-05-14T02:03:36;23.73;;;14.53;;
18623;SDS011;9441;51.420;7.036;2023-05-14T02:04:37;22.93;;;14.63;;
18623;SDS011;9441;51.420;7.036;2023-05-14T02:05:40;23.43;;;15.37;;
18623;SDS011;9441;51.420;7.036;2023-05-14T02:06:41;22.27;;;14.60;;
18623;SDS011;9441;51.420;7.036;2023-05-14T02:07:43;24.73;;;14.40;;
18623;SDS011;9441;51.420;7.036;2023-05-14T02:08:46;25.27;;;14.67;;
18623;SDS011;9441;51.420;7.036;2023-05-14T02:09:48;22.90;;;14.73;;
18623;SDS011;9441;51.420;7.036;2023-05-14T02:10:50;24.23;;;15.60;;
18623;SDS011;9441;51.420;7.036;2023-05-14T02:11:52;24.70;;;15.80;;
18623;SDS011;9441;51.420;7.036;2023-05-14T02:12:54;19.63;;;14.03;;
18623;SDS011;9441;51.420;7.036;2023-05-14T02:13:57;23.07;;;14.10;;
18623;SDS011;9441;51.420;7.036;2023-05-14T02:14:58;20.07;;;14.33;;
18623;SDS011;9441;51.420;7.036;2023-05-14T02:16:01;18.83;;;13.37;;
18623;SDS011;9441;51.420;7.036;2023-05-14T02:17:03;19.50;;;14.00;;
18623;SDS011;9441;51.420;7.036;2023-05-14T02:18:05;25.23;;;13.93;;
18623;SDS011;9441;51.420;7.036;2023-05-14T02:19:06;24.63;;;14.00;;
18623;SDS011;9441;51.420;7.036;2023-05-14T02:20:09;22.47;;;13.47;;
18623;SDS011;9441;51.420;7.036;2023-05-14T02:21:15;21.53;;;13.57;;
18623;SDS011;9441;51.420;7.036;2023-05-14T02:22:17;24.20;;;14.07;;
18623;SDS011;9441;51.420;7.036;2023-05-14T02:23:19;23.83;;;13.70;;
18623;SDS011;9441;51.420;7.036;2023-05-14T02:24:24;19.27;;;13.83;;
18623;SDS011;9441;51.420;7.036;2023-05-14T02:25:26;22.13;;;13.40;;
18623;SDS011;9441;51.420;7.036;2023-05-14T02:26:28;24.17;;;13.90;;
18623;SDS011;9441;51.420;7.036;2023-05-14T02:27:29;24.53;;;13.20;;
18623;SDS011;9441;51.420;7.036;2023-05-14T02:28:32;21.33;;;12.83;;
18623;SDS011;9441;51.420;7.036;2023-05-14T02:29:33;22.13;;;13.37;;
18623;SDS011;9441;51.420;7.036;2023-05-14T02:30:35;18.70;;;12.70;;
18623;SDS011;9441;51.420;7.036;2023-05-14T02:31:37;20.57;;;13.43;;
18623;SDS011;9441;51.420;7.036;2023-05-14T02:32:39;20.47;;;13.13;;
18623;SDS011;9441;51.420;7.036;2023-05-14T02:33:41;23.23;;;12.87;;
18623;SDS011;9441;51.420;7.036;2023-05-14T02:34:43;21.87;;;13.20;;
18623;SDS011;9441;51.420;7.036;2023-05-14T02:35:45;23.40;;;13.40;;
18623;SDS011;9441;51.420;7.036;2023-05-14T02:36:47;21.20;;;13.20;;
18623;SDS011;9441;51.420;7.036;2023-05-14T02:37:48;18.90;;;13.43;;
18623;SDS011;9441;51.420;7.036;2023-05-14T02:38:51;20.80;;;13.70;;
18623;SDS011;9441;51.420;7.036;2023-05-14T02:39:53;18.17;;;12.97;;
18623;SDS011;9441;51.420;7.036;2023-05-14T02:40:56;23.07;;;13.93;;
18623;SDS011;9441;51.420;7.036;2023-05-14T02:41:57;19.53;;;13.30;;
18623;SDS011;9441;51.420;7.036;2023-05-14T02:43:00;21.93;;;13.03;;
18623;SDS011;9441;51.420;7.036;2023-05-14T02:44:01;21.73;;;13.53;;
18623;SDS011;9441;51.420;7.036;2023-05-14T02:45:05;22.23;;;13.23;;
18623;SDS011;9441;51.420;7.036;2023-05-14T02:46:06;23.60;;;12.70;;
18623;SDS011;9441;51.420;7.036;2023-05-14T02:47:08;20.13;;;13.00;;
18623;SDS011;9441;51.420;7.036;2023-05-14T02:48:10;21.90;;;12.80;;
18623;SDS011;9441;51.420;7.036;2023-05-14T02:49:12;24.17;;;12.73;;
18623;SDS011;9441;51.420;7.036;2023-05-14T02:50:13;19.80;;;12.80;;
18623;SDS011;9441;51.420;7.036;2023-05-14T02:51:16;21.77;;;13.60;;
18623;SDS011;9441;51.420;7.036;2023-05-14T02:52:17;18.40;;;13.10;;
18623;SDS011;9441;51.420;7.036;2023-05-14T02:53:19;18.13;;;13.30;;
18623;SDS011;9441;51.420;7.036;2023-05-14T02:54:21;19.23;;;12.87;;
18623;SDS011;9441;51.420;7.036;2023-05-14T02:55:24;21.30;;;12.50;;
18623;SDS011;9441;51.420;7.036;2023-05-14T02:56:26;15.77;;;11.73;;
18623;SDS011;9441;51.420;7.036;2023-05-14T02:57:28;22.33;;;12.97;;
18623;SDS011;9441;51.420;7.036;2023-05-14T02:58:30;18.63;;;12.53;;
18623;SDS011;9441;51.420;7.036;2023-05-14T02:59:32;18.63;;;12.90;;
18623;SDS011;9441;51.420;7.036;2023-05-14T03:00:33;21.13;;;12.63;;
18623;SDS011;9441;51.420;7.036;2023-05-14T03:01:36;22.40;;;12.97;;
18623;SDS011;9441;51.420;7.036;2023-05-14T03:02:37;19.40;;;13.17;;
18623;SDS011;9441;51.420;7.036;2023-05-14T03:03:40;18.70;;;12.07;;
18623;SDS011;9441;51.420;7.036;2023-05-14T03:04:41;18.90;;;12.33;;
18623;SDS011;9441;51.420;7.036;2023-05-14T03:05:43;23.93;;;12.83;;
18623;SDS011;9441;51.420;7.036;2023-05-14T03:06:45;19.77;;;12.90;;
18623;SDS011;9441;51.420;7.036;2023-05-14T03:07:48;21.40;;;13.40;;
18623;SDS011;9441;51.420;7.036;2023-05-14T03:08:49;18.63;;;12.90;;
18623;SDS011;9441;51.420;7.036;2023-05-14T03:09:51;20.57;;;13.57;;
18623;SDS011;9441;51.420;7.036;2023-05-14T03:10:54;18.53;;;12.83;;
18623;SDS011;9441;51.420;7.036;2023-05-14T03:11:56;19.20;;;12.63;;
18623;SDS011;9441;51.420;7.036;2023-05-14T03:12:57;24.90;;;12.63;;
18623;SDS011;9441;51.420;7.036;2023-05-14T03:14:00;20.87;;;12.67;;
18623;SDS011;9441;51.420;7.036;2023-05-14T03:15:01;20.70;;;12.27;;
18623;SDS011;9441;51.420;7.036;2023-05-14T03:16:04;22.20;;;12.13;;
18623;SDS011;9441;51.420;7.036;2023-05-14T03:17:05;22.07;;;12.20;;
18623;SDS011;9441;51.420;7.036;2023-05-14T03:18:08;18.10;;;12.40;;
18623;SDS011;9441;51.420;7.036;2023-05-14T03:19:09;18.37;;;12.67;;
18623;SDS011;9441;51.420;7.036;2023-05-14T03:20:12;18.70;;;12.67;;
18623;SDS011;9441;51.420;7.036;2023-05-14T03:21:13;20.30;;;12.40;;
18623;SDS011;9441;51.420;7.036;2023-05-14T03:22:16;22.50;;;12.80;;
18623;SDS011;9441;51.420;7.036;2023-05-14T03:23:18;17.67;;;12.47;;
18623;SDS011;9441;51.420;7.036;2023-05-14T03:24:20;21.23;;;12.63;;
18623;SDS011;9441;51.420;7.036;2023-05-14T03:25:21;18.43;;;13.03;;
18623;SDS011;9441;51.420;7.036;2023-05-14T03:26:26;18.73;;;12.23;;
18623;SDS011;9441;51.420;7.036;2023-05-14T03:27:27;19.13;;;13.17;;
18623;SDS011;9441;51.420;7.036;2023-05-14T03:28:30;20.03;;;13.20;;
18623;SDS011;9441;51.420;7.036;2023-05-14T03:29:33;17.03;;;12.67;;
18623;SDS011;9441;51.420;7.036;2023-05-14T03:30:35;21.53;;;14.07;;
18623;SDS011;9441;51.420;7.036;2023-05-14T03:31:37;21.73;;;13.77;;
18623;SDS011;9441;51.420;7.036;2023-05-14T03:32:39;23.27;;;13.80;;
18623;SDS011;9441;51.420;7.036;2023-05-14T03:33:40;22.17;;;14.70;;
18623;SDS011;9441;51.420;7.036;2023-05-14T03:34:43;25.77;;;14.13;;
18623;SDS011;9441;51.420;7.036;2023-05-14T03:35:45;24.23;;;14.60;;
18623;SDS011;9441;51.420;7.036;2023-05-14T03:36:49;21.50;;;13.83;;
18623;SDS011;9441;51.420;7.036;2023-05-14T03:37:51;22.63;;;14.13;;
18623;SDS011;9441;51.420;7.036;2023-05-14T03:38:53;24.13;;;14.63;;
18623;SDS011;9441;51.420;7.036;2023-05-14T03:39:55;21.43;;;14.60;;
18623;SDS011;9441;51.420;7.036;2023-05-14T03:40:56;22.33;;;14.20;;
18623;SDS011;9441;51.420;7.036;2023-05-14T03:42:01;21.37;;;14.30;;
18623;SDS011;9441;51.420;7.036;2023-05-14T03:43:02;23.03;;;14.33;;
18623;SDS011;9441;51.420;7.036;2023-05-14T03:44:05;22.03;;;13.77;;
18623;SDS011;9441;51.420;7.036;2023-05-14T03:45:07;20.90;;;13.87;;
18623;SDS011;9441;51.420;7.036;2023-05-14T03:46:09;20.90;;;13.33;;
18623;SDS011;9441;51.420;7.036;2023-05-14T03:47:11;18.53;;;13.73;;
18623;SDS011;9441;51.420;7.036;2023-05-14T03:48:14;19.47;;;13.43;;
18623;SDS011;9441;51.420;7.036;2023-05-14T03:49:15;23.60;;;14.73;;
18623;SDS011;9441;51.420;7.036;2023-05-14T03:50:18;23.27;;;13.50;;
18623;SDS011;9441;51.420;7.036;2023-05-14T03:51:19;18.27;;;13.60;;
18623;SDS011;9441;51.420;7.036;2023-05-14T03:52:22;18.90;;;13.10;;
18623;SDS011;9441;51.420;7.036;2023-05-14T03:53:23;22.77;;;14.10;;
18623;SDS011;9441;51.420;7.036;2023-05-14T03:54:25;23.60;;;14.47;;
18623;SDS011;9441;51.420;7.036;2023-05-14T03:55:27;19.73;;;13.60;;
18623;SDS011;9441;51.420;7.036;2023-05-14T03:56:29;24.40;;;14.13;;
18623;SDS011;9441;51.420;7.036;2023-05-14T03:57:32;21.83;;;13.67;;
18623;SDS011;9441;51.420;7.036;2023-05-14T03:58:35;19.97;;;14.33;;
18623;SDS011;9441;51.420;7.036;2023-05-14T03:59:37;21.40;;;13.97;;
18623;SDS011;9441;51.420;7.036;2023-05-14T04:00:39;21.73;;;14.27;;
18623;SDS011;9441;51.420;7.036;2023-05-14T04:01:41;19.37;;;13.57;;
18623;SDS011;9441;51.420;7.036;2023-05-14T04:02:43;21.07;;;14.13;;
18623;SDS011;9441;51.420;7.036;2023-05-14T04:03:44;21.47;;;14.00;;
18623;SDS011;9441;51.420;7.036;2023-05-14T04:04:47;22.07;;;14.53;;
18623;SDS011;9441;51.420;7.036;2023-05-14T04:05:51;24.50;;;14.23;;
18623;SDS011;9441;51.420;7.036;2023-05-14T04:06:54;21.13;;;13.60;;
18623;SDS011;9441;51.420;7.036;2023-05-14T04:07:55;21.00;;;14.53;;
18623;SDS011;9441;51.420;7.036;2023-05-14T04:08:58;23.23;;;14.40;;
18623;SDS011;9441;51.420;7.036;2023-05-14T04:09:59;19.57;;;14.87;;
18623;SDS011;9441;51.420;7.036;2023-05-14T04:11:01;25.57;;;14.90;;
18623;SDS011;9441;51.420;7.036;2023-05-14T04:12:03;21.23;;;15.27;;
18623;SDS011;9441;51.420;7.036;2023-05-14T04:13:08;21.60;;;14.67;;
18623;SDS011;9441;51.420;7.036;2023-05-14T04:14:12;26.13;;;14.23;;
18623;SDS011;9441;51.420;7.036;2023-05-14T04:15:16;21.70;;;14.33;;
18623;SDS011;9441;51.420;7.036;2023-05-14T04:16:17;20.73;;;14.47;;
18623;SDS011;9441;51.420;7.036;2023-05-14T04:17:19;21.87;;;15.27;;
18623;SDS011;9441;51.420;7.036;2023-05-14T04:18:22;22.37;;;15.20;;
18623;SDS011;9441;51.420;7.036;2023-05-14T04:19:24;21.57;;;14.70;;
18623;SDS011;9441;51.420;7.036;2023-05-14T04:20:26;24.93;;;14.73;;
18623;SDS011;9441;51.420;7.036;2023-05-14T04:21:28;21.63;;;14.07;;
18623;SDS011;9441;51.420;7.036;2023-05-14T04:22:30;24.07;;;15.23;;
18623;SDS011;9441;51.420;7.036;2023-05-14T04:23:32;23.90;;;15.00;;
18623;SDS011;9441;51.420;7.036;2023-05-14T04:24:33;23.73;;;14.87;;
18623;SDS011;9441;51.420;7.036;2023-05-14T04:25:36;25.83;;;14.73;;
18623;SDS011;9441;51.420;7.036;2023-05-14T04:26:37;26.93;;;15.40;;
18623;SDS011;9441;51.420;7.036;2023-05-14T04:27:39;22.13;;;15.43;;
18623;SDS011;9441;51.420;7.036;2023-05-14T04:28:42;19.80;;;14.33;;
18623;SDS011;9441;51.420;7.036;2023-05-14T04:29:44;23.77;;;14.63;;
18623;SDS011;9441;51.420;7.036;2023-05-14T04:30:47;20.53;;;14.43;;
18623;SDS011;9441;51.420;7.036;2023-05-14T04:31:49;23.77;;;15.37;;
18623;SDS011;9441;51.420;7.036;2023-05-14T04:32:50;21.73;;;15.47;;
18623;SDS011;9441;51.420;7.036;2023-05-14T04:33:52;22.03;;;15.37;;
18623;SDS011;9441;51.420;7.036;2023-05-14T04:34:54;23.37;;;15.67;;
18623;SDS011;9441;51.420;7.036;2023-05-14T04:35:56;22.83;;;14.80;;
18623;SDS011;9441;51.420;7.036;2023-05-14T04:36:58;23.53;;;14.53;;
18623;SDS011;9441;51.420;7.036;2023-05-14T04:38:02;19.93;;;14.33;;
18623;SDS011;9441;51.420;7.036;2023-05-14T04:39:03;21.60;;;15.60;;
18623;SDS011;9441;51.420;7.036;2023-05-14T04:40:06;22.03;;;15.60;;
18623;SDS011;9441;51.420;7.036;2023-05-14T04:41:08;22.90;;;14.50;;
18623;SDS011;9441;51.420;7.036;2023-05-14T04:42:10;20.77;;;15.20;;
18623;SDS011;9441;51.420;7.036;2023-05-14T04:43:11;21.40;;;14.60;;
18623;SDS011;9441;51.420;7.036;2023-05-14T04:44:15;21.33;;;14.87;;
18623;SDS011;9441;51.420;7.036;2023-05-14T04:45:16;21.00;;;14.77;;
18623;SDS011;9441;51.420;7.036;2023-05-14T04:46:19;23.30;;;14.67;;
18623;SDS011;9441;51.420;7.036;2023-05-14T04:47:20;25.90;;;15.67;;
18623;SDS011;9441;51.420;7.036;2023-05-14T04:48:23;29.30;;;16.43;;
18623;SDS011;9441;51.420;7.036;2023-05-14T04:49:24;25.57;;;15.73;;
18623;SDS011;9441;51.420;7.036;2023-05-14T04:50:26;24.67;;;15.83;;
18623;SDS011;9441;51.420;7.036;2023-05-14T04:51:27;24.27;;;16.10;;
18623;SDS011;9441;51.420;7.036;2023-05-14T04:52:30;25.43;;;15.90;;
18623;SDS011;9441;51.420;7.036;2023-05-14T04:53:31;24.83;;;16.47;;
18623;SDS011;9441;51.420;7.036;2023-05-14T04:54:34;25.80;;;16.13;;
18623;SDS011;9441;51.420;7.036;2023-05-14T04:55:35;24.33;;;15.83;;
18623;SDS011;9441;51.420;7.036;2023-05-14T04:56:37;20.13;;;15.00;;
18623;SDS011;9441;51.420;7.036;2023-05-14T04:57:39;20.00;;;15.10;;
18623;SDS011;9441;51.420;7.036;2023-05-14T04:58:41;26.13;;;15.60;;
18623;SDS011;9441;51.420;7.036;2023-05-14T04:59:44;23.50;;;15.33;;
18623;SDS011;9441;51.420;7.036;2023-05-14T05:00:46;21.50;;;14.53;;
18623;SDS011;9441;51.420;7.036;2023-05-14T05:01:48;25.33;;;14.93;;
18623;SDS011;9441;51.420;7.036;2023-05-14T05:02:50;22.33;;;14.77;;
18623;SDS011;9441;51.420;7.036;2023-05-14T05:03:52;20.37;;;14.47;;
18623;SDS011;9441;51.420;7.036;2023-05-14T05:04:54;23.40;;;14.57;;
18623;SDS011;9441;51.420;7.036;2023-05-14T05:05:55;21.73;;;14.23;;
18623;SDS011;9441;51.420;7.036;2023-05-14T05:06:58;22.70;;;15.20;;
18623;SDS011;9441;51.420;7.036;2023-05-14T05:07:59;23.00;;;14.70;;
18623;SDS011;9441;51.420;7.036;2023-05-14T05:09:01;22.23;;;14.43;;
18623;SDS011;9441;51.420;7.036;2023-05-14T05:10:03;20.50;;;14.93;;
18623;SDS011;9441;51.420;7.036;2023-05-14T05:11:06;19.67;;;14.20;;
18623;SDS011;9441;51.420;7.036;2023-05-14T05:12:08;22.23;;;14.00;;
18623;SDS011;9441;51.420;7.036;2023-05-14T05:13:10;21.57;;;14.83;;
18623;SDS011;9441;51.420;7.036;2023-05-14T05:14:11;27.87;;;14.43;;
18623;SDS011;9441;51.420;7.036;2023-05-14T05:15:15;21.47;;;13.93;;
18623;SDS011;9441;51.420;7.036;2023-05-14T05:16:16;19.10;;;13.87;;
18623;SDS011;9441;51.420;7.036;2023-05-14T05:17:19;20.47;;;13.97;;
18623;SDS011;9441;51.420;7.036;2023-05-14T05:18:20;22.17;;;14.77;;
18623;SDS011;9441;51.420;7.036;2023-05-14T05:19:22;20.70;;;14.33;;
18623;SDS011;9441;51.420;7.036;2023-05-14T05:20:24;19.23;;;14.17;;
18623;SDS011;9441;51.420;7.036;2023-05-14T05:21:27;19.57;;;14.20;;
18623;SDS011;9441;51.420;7.036;2023-05-14T05:22:29;18.77;;;13.40;;
18623;SDS011;9441;51.420;7.036;2023-05-14T05:23:31;22.37;;;14.57;;
18623;SDS011;9441;51.420;7.036;2023-05-14T05:24:32;20.60;;;13.63;;
18623;SDS011;9441;51.420;7.036;2023-05-14T05:25:35;20.83;;;13.97;;
18623;SDS011;9441;51.420;7.036;2023-05-14T05:26:36;21.93;;;14.00;;
18623;SDS011;9441;51.420;7.036;2023-05-14T05:27:38;20.53;;;14.20;;
18623;SDS011;9441;51.420;7.036;2023-05-14T05:28:39;21.97;;;14.33;;
18623;SDS011;9441;51.420;7.036;2023-05-14T05:29:42;19.33;;;13.43;;
18623;SDS011;9441;51.420;7.036;2023-05-14T05:30:45;20.73;;;13.70;;
18623;SDS011;9441;51.420;7.036;2023-05-14T05:31:47;20.90;;;14.27;;
18623;SDS011;9441;51.420;7.036;2023-05-14T05:32:48;19.83;;;13.30;;
18623;SDS011;9441;51.420;7.036;2023-05-14T05:33:51;20.70;;;14.40;;
18623;SDS011;9441;51.420;7.036;2023-05-14T05:34:55;20.97;;;13.20;;
18623;SDS011;9441;51.420;7.036;2023-05-14T05:35:57;25.00;;;13.43;;
18623;SDS011;9441;51.420;7.036;2023-05-14T05:36:59;24.67;;;14.50;;
18623;SDS011;9441;51.420;7.036;2023-05-14T05:38:01;19.53;;;13.13;;
18623;SDS011;9441;51.420;7.036;2023-05-14T05:39:04;18.23;;;12.97;;
18623;SDS011;9441;51.420;7.036;2023-05-14T05:40:05;20.83;;;13.43;;
18623;SDS011;9441;51.420;7.036;2023-05-14T05:41:09;19.33;;;13.60;;
18623;SDS011;9441;51.420;7.036;2023-05-14T05:42:10;19.93;;;13.37;;
18623;SDS011;9441;51.420;7.036;2023-05-14T05:43:13;20.50;;;12.93;;
18623;SDS011;9441;51.420;7.036;2023-05-14T05:44:14;19.40;;;13.33;;
18623;SDS011;9441;51.420;7.036;2023-05-14T05:45:17;17.77;;;13.10;;
18623;SDS011;9441;51.420;7.036;2023-05-14T05:46:19;19.77;;;13.27;;
18623;SDS011;9441;51.420;7.036;2023-05-14T05:47:22;19.47;;;12.87;;
18623;SDS011;9441;51.420;7.036;2023-05-14T05:48:23;19.17;;;12.73;;
18623;SDS011;9441;51.420;7.036;2023-05-14T05:49:25;19.17;;;12.30;;
18623;SDS011;9441;51.420;7.036;2023-05-14T05:50:27;16.10;;;12.80;;
18623;SDS011;9441;51.420;7.036;2023-05-14T05:51:32;17.63;;;12.47;;
18623;SDS011;9441;51.420;7.036;2023-05-14T05:52:33;16.27;;;12.10;;
18623;SDS011;9441;51.420;7.036;2023-05-14T05:53:36;19.53;;;12.47;;
18623;SDS011;9441;51.420;7.036;2023-05-14T05:54:37;20.23;;;12.60;;
18623;SDS011;9441;51.420;7.036;2023-05-14T05:55:39;17.13;;;12.67;;
18623;SDS011;9441;51.420;7.036;2023-05-14T05:56:41;15.73;;;12.50;;
18623;SDS011;9441;51.420;7.036;2023-05-14T05:57:43;17.60;;;12.27;;
18623;SDS011;9441;51.420;7.036;2023-05-14T05:58:44;16.73;;;12.83;;
18623;SDS011;9441;51.420;7.036;2023-05-14T05:59:47;16.17;;;12.80;;
18623;SDS011;9441;51.420;7.036;2023-05-14T06:00:48;17.73;;;13.03;;
18623;SDS011;9441;51.420;7.036;2023-05-14T06:01:52;17.13;;;12.57;;
18623;SDS011;9441;51.420;7.036;2023-05-14T06:02:53;20.77;;;13.13;;
18623;SDS011;9441;51.420;7.036;2023-05-14T06:03:56;17.77;;;13.07;;
18623;SDS011;9441;51.420;7.036;2023-05-14T06:04:57;17.47;;;12.63;;
18623;SDS011;9441;51.420;7.036;2023-05-14T06:06:00;17.87;;;13.30;;
18623;SDS011;9441;51.420;7.036;2023-05-14T06:07:01;16.73;;;12.47;;
18623;SDS011;9441;51.420;7.036;2023-05-14T06:08:03;15.97;;;12.70;;
18623;SDS011;9441;51.420;7.036;2023-05-14T06:09:05;17.40;;;13.93;;